sensor_id;sensor_type;location;lat;lon;timestamp;P1;durP1;ratioP1;P2;durP2;ratioP2
21546;SDS011;41275;51.912;4.388;2023-08-17T00:03:46;2.70;;;0.90;;
21546;SDS011;41275;51.912;4.388;2023-08-17T00:09:08;2.47;;;0.98;;
21546;SDS011;41275;51.912;4.388;2023-08-17T00:14:30;1.60;;;0.60;;
21546;SDS011;41275;51.912;4.388;2023-08-17T00:19:51;6.27;;;1.17;;
21546;SDS011;41275;51.912;4.388;2023-08-17T00:25:13;2.88;;;1.08;;
21546;SDS011;41275;51.912;4.388;2023-08-17T00:30:34;4.13;;;1.00;;
21546;SDS011;41275;51.912;4.388;2023-08-17T00:35:58;2.72;;;1.00;;
21546;SDS011;41275;51.912;4.388;2023-08-17T00:41:20;2.85;;;0.80;;
21546;SDS011;41275;51.912;4.388;2023-08-17T00:46:41;3.10;;;1.00;;
21546;SDS011;41275;51.912;4.388;2023-08-17T00:52:02;2.80;;;0.85;;
21546;SDS011;41275;51.912;4.388;2023-08-17T00:57:25;1.38;;;0.77;;
21546;SDS011;41275;51.912;4.388;2023-08-17T01:02:47;4.07;;;0.85;;
21546;SDS011;41275;51.912;4.388;2023-08-17T01:08:09;1.77;;;0.63;;
21546;SDS011;41275;51.912;4.388;2023-08-17T01:13:44;2.35;;;0.85;;
21546;SDS011;41275;51.912;4.388;2023-08-17T01:19:13;5.00;;;1.02;;
21546;SDS011;41275;51.912;4.388;2023-08-17T01:24:45;2.10;;;0.82;;
21546;SDS011;41275;51.912;4.388;2023-08-17T01:30:07;3.08;;;0.80;;
21546;SDS011;41275;51.912;4.388;2023-08-17T01:35:31;3.55;;;0.73;;
21546;SDS011;41275;51.912;4.388;2023-08-17T01:40:54;1.75;;;0.68;;
21546;SDS011;41275;51.912;4.388;2023-08-17T01:46:17;1.77;;;0.65;;
21546;SDS011;41275;51.912;4.388;2023-08-17T01:51:38;2.97;;;0.83;;
21546;SDS011;41275;51.912;4.388;2023-08-17T01:57:00;2.40;;;0.70;;
21546;SDS011;41275;51.912;4.388;2023-08-17T02:02:21;1.58;;;0.60;;
21546;SDS011;41275;51.912;4.388;2023-08-17T02:07:43;2.10;;;0.68;;
21546;SDS011;41275;51.912;4.388;2023-08-17T02:13:04;2.30;;;0.70;;
21546;SDS011;41275;51.912;4.388;2023-08-17T02:18:25;2.08;;;0.60;;
21546;SDS011;41275;51.912;4.388;2023-08-17T02:23:46;1.85;;;0.63;;
21546;SDS011;41275;51.912;4.388;2023-08-17T02:29:08;2.73;;;0.70;;
21546;SDS011;41275;51.912;4.388;2023-08-17T02:34:29;1.88;;;0.68;;
21546;SDS011;41275;51.912;4.388;2023-08-17T02:39:50;2.97;;;0.88;;
21546;SDS011;41275;51.912;4.388;2023-08-17T02:45:11;2.57;;;0.70;;
21546;SDS011;41275;51.912;4.388;2023-08-17T02:50:33;4.07;;;0.90;;
21546;SDS011;41275;51.912;4.388;2023-08-17T02:55:54;2.10;;;0.70;;
21546;SDS011;41275;51.912;4.388;2023-08-17T03:01:15;2.58;;;0.80;;
21546;SDS011;41275;51.912;4.388;2023-08-17T03:06:36;2.20;;;0.80;;
21546;SDS011;41275;51.912;4.388;2023-08-17T03:11:58;3.13;;;0.80;;
21546;SDS011;41275;51.912;4.388;2023-08-17T03:17:19;2.13;;;0.80;;
21546;SDS011;41275;51.912;4.388;2023-08-17T03:22:40;3.25;;;0.80;;
21546;SDS011;41275;51.912;4.388;2023-08-17T03:28:01;2.27;;;0.80;;
21546;SDS011;41275;51.912;4.388;2023-08-17T03:33:24;1.93;;;0.87;;
21546;SDS011;41275;51.912;4.388;2023-08-17T03:38:45;5.10;;;0.93;;
21546;SDS011;41275;51.912;4.388;2023-08-17T03:44:07;4.72;;;1.00;;
21546;SDS011;41275;51.912;4.388;2023-08-17T03:49:30;3.17;;;0.80;;
21546;SDS011;41275;51.912;4.388;2023-08-17T03:54:51;3.70;;;0.80;;
21546;SDS011;41275;51.912;4.388;2023-08-17T04:00:12;4.53;;;0.80;;
21546;SDS011;41275;51.912;4.388;2023-08-17T04:05:34;3.80;;;0.93;;
21546;SDS011;41275;51.912;4.388;2023-08-17T04:10:55;2.47;;;0.80;;
21546;SDS011;41275;51.912;4.388;2023-08-17T04:16:16;4.47;;;1.08;;
21546;SDS011;41275;51.912;4.388;2023-08-17T04:21:37;4.50;;;0.90;;
21546;SDS011;41275;51.912;4.388;2023-08-17T04:26:59;3.47;;;0.90;;
21546;SDS011;41275;51.912;4.388;2023-08-17T04:32:20;3.17;;;0.88;;
21546;SDS011;41275;51.912;4.388;2023-08-17T04:37:41;4.15;;;0.80;;
21546;SDS011;41275;51.912;4.388;2023-08-17T04:43:02;2.55;;;1.00;;
21546;SDS011;41275;51.912;4.388;2023-08-17T04:48:24;5.00;;;1.53;;
21546;SDS011;41275;51.912;4.388;2023-08-17T04:53:45;2.33;;;0.90;;
21546;SDS011;41275;51.912;4.388;2023-08-17T04:59:06;3.03;;;0.90;;
21546;SDS011;41275;51.912;4.388;2023-08-17T05:04:29;4.45;;;1.02;;
21546;SDS011;41275;51.912;4.388;2023-08-17T05:09:51;4.25;;;0.85;;
21546;SDS011;41275;51.912;4.388;2023-08-17T05:15:12;4.68;;;1.00;;
21546;SDS011;41275;51.912;4.388;2023-08-17T05:20:33;4.07;;;1.07;;
21546;SDS011;41275;51.912;4.388;2023-08-17T05:25:54;3.35;;;0.88;;
21546;SDS011;41275;51.912;4.388;2023-08-17T05:31:16;3.43;;;0.93;;
21546;SDS011;41275;51.912;4.388;2023-08-17T05:36:37;3.28;;;0.93;;
21546;SDS011;41275;51.912;4.388;2023-08-17T05:41:58;5.40;;;0.93;;
21546;SDS011;41275;51.912;4.388;2023-08-17T05:47:19;2.07;;;0.90;;
21546;SDS011;41275;51.912;4.388;2023-08-17T05:52:41;5.05;;;1.27;;
21546;SDS011;41275;51.912;4.388;2023-08-17T05:58:05;1.98;;;0.80;;
21546;SDS011;41275;51.912;4.388;2023-08-17T06:03:26;6.30;;;1.10;;
21546;SDS011;41275;51.912;4.388;2023-08-17T06:08:47;2.55;;;0.80;;
21546;SDS011;41275;51.912;4.388;2023-08-17T06:14:09;1.65;;;0.57;;
21546;SDS011;41275;51.912;4.388;2023-08-17T06:19:30;6.10;;;0.87;;
21546;SDS011;41275;51.912;4.388;2023-08-17T06:24:51;2.92;;;1.10;;
21546;SDS011;41275;51.912;4.388;2023-08-17T06:30:12;3.05;;;1.08;;
21546;SDS011;41275;51.912;4.388;2023-08-17T06:35:34;3.28;;;0.63;;
21546;SDS011;41275;51.912;4.388;2023-08-17T06:40:55;5.13;;;0.98;;
21546;SDS011;41275;51.912;4.388;2023-08-17T06:46:16;4.20;;;0.93;;
21546;SDS011;41275;51.912;4.388;2023-08-17T06:51:38;4.63;;;0.90;;
21546;SDS011;41275;51.912;4.388;2023-08-17T06:56:59;2.70;;;0.80;;
21546;SDS011;41275;51.912;4.388;2023-08-17T07:02:20;3.87;;;1.00;;
21546;SDS011;41275;51.912;4.388;2023-08-17T07:07:42;3.20;;;0.97;;
21546;SDS011;41275;51.912;4.388;2023-08-17T07:13:03;2.63;;;0.80;;
21546;SDS011;41275;51.912;4.388;2023-08-17T07:18:24;7.63;;;1.00;;
21546;SDS011;41275;51.912;4.388;2023-08-17T07:23:46;3.43;;;0.80;;
21546;SDS011;41275;51.912;4.388;2023-08-17T07:29:10;2.70;;;0.88;;
21546;SDS011;41275;51.912;4.388;2023-08-17T07:34:32;2.83;;;0.80;;
21546;SDS011;41275;51.912;4.388;2023-08-17T07:39:58;4.22;;;1.00;;
21546;SDS011;41275;51.912;4.388;2023-08-17T07:45:20;3.73;;;0.93;;
21546;SDS011;41275;51.912;4.388;2023-08-17T07:50:41;3.70;;;0.90;;
21546;SDS011;41275;51.912;4.388;2023-08-17T07:56:02;5.25;;;1.40;;
21546;SDS011;41275;51.912;4.388;2023-08-17T08:01:24;2.83;;;0.90;;
21546;SDS011;41275;51.912;4.388;2023-08-17T08:06:45;3.88;;;1.02;;
21546;SDS011;41275;51.912;4.388;2023-08-17T08:12:09;3.78;;;1.08;;
21546;SDS011;41275;51.912;4.388;2023-08-17T08:17:31;3.85;;;1.10;;
21546;SDS011;41275;51.912;4.388;2023-08-17T08:22:52;2.80;;;1.10;;
21546;SDS011;41275;51.912;4.388;2023-08-17T08:28:16;2.30;;;0.90;;
21546;SDS011;41275;51.912;4.388;2023-08-17T08:33:40;2.33;;;1.00;;
21546;SDS011;41275;51.912;4.388;2023-08-17T08:39:02;3.05;;;0.70;;
21546;SDS011;41275;51.912;4.388;2023-08-17T08:44:23;3.22;;;1.00;;
21546;SDS011;41275;51.912;4.388;2023-08-17T08:50:03;2.07;;;0.70;;
21546;SDS011;41275;51.912;4.388;2023-08-17T08:55:29;3.70;;;0.70;;
21546;SDS011;41275;51.912;4.388;2023-08-17T09:00:57;5.63;;;0.90;;
21546;SDS011;41275;51.912;4.388;2023-08-17T09:06:19;3.27;;;0.80;;
21546;SDS011;41275;51.912;4.388;2023-08-17T09:11:44;5.77;;;1.00;;
21546;SDS011;41275;51.912;4.388;2023-08-17T09:17:05;4.03;;;0.90;;
21546;SDS011;41275;51.912;4.388;2023-08-17T09:28:09;3.00;;;0.70;;
21546;SDS011;41275;51.912;4.388;2023-08-17T09:33:33;3.63;;;0.90;;
21546;SDS011;41275;51.912;4.388;2023-08-17T09:38:56;4.90;;;1.10;;
21546;SDS011;41275;51.912;4.388;2023-08-17T09:44:18;3.88;;;0.68;;
21546;SDS011;41275;51.912;4.388;2023-08-17T09:49:42;3.07;;;0.90;;
21546;SDS011;41275;51.912;4.388;2023-08-17T09:55:08;3.33;;;0.82;;
21546;SDS011;41275;51.912;4.388;2023-08-17T10:00:32;2.70;;;1.00;;
21546;SDS011;41275;51.912;4.388;2023-08-17T10:05:55;4.47;;;0.90;;
21546;SDS011;41275;51.912;4.388;2023-08-17T10:11:22;3.83;;;1.30;;
21546;SDS011;41275;51.912;4.388;2023-08-17T10:16:44;3.67;;;1.30;;
21546;SDS011;41275;51.912;4.388;2023-08-17T10:22:11;4.32;;;1.00;;
21546;SDS011;41275;51.912;4.388;2023-08-17T10:27:37;5.23;;;1.07;;
21546;SDS011;41275;51.912;4.388;2023-08-17T10:32:58;4.40;;;1.00;;
21546;SDS011;41275;51.912;4.388;2023-08-17T10:38:21;4.40;;;1.17;;
21546;SDS011;41275;51.912;4.388;2023-08-17T10:43:56;3.10;;;1.23;;
21546;SDS011;41275;51.912;4.388;2023-08-17T10:49:25;2.63;;;1.25;;
21546;SDS011;41275;51.912;4.388;2023-08-17T10:54:47;4.30;;;1.00;;
21546;SDS011;41275;51.912;4.388;2023-08-17T11:05:48;3.67;;;1.10;;
21546;SDS011;41275;51.912;4.388;2023-08-17T11:11:30;2.05;;;1.10;;
21546;SDS011;41275;51.912;4.388;2023-08-17T11:16:51;4.03;;;1.30;;
21546;SDS011;41275;51.912;4.388;2023-08-17T11:22:13;3.42;;;0.90;;
21546;SDS011;41275;51.912;4.388;2023-08-17T11:27:34;2.35;;;1.13;;
21546;SDS011;41275;51.912;4.388;2023-08-17T11:32:56;5.00;;;1.30;;
21546;SDS011;41275;51.912;4.388;2023-08-17T11:38:17;3.20;;;1.00;;
21546;SDS011;41275;51.912;4.388;2023-08-17T11:43:42;2.57;;;1.10;;
21546;SDS011;41275;51.912;4.388;2023-08-17T11:49:04;4.30;;;1.20;;
21546;SDS011;41275;51.912;4.388;2023-08-17T11:54:28;5.57;;;1.20;;
21546;SDS011;41275;51.912;4.388;2023-08-17T11:59:54;4.78;;;1.17;;
21546;SDS011;41275;51.912;4.388;2023-08-17T12:05:22;3.58;;;1.10;;
21546;SDS011;41275;51.912;4.388;2023-08-17T12:10:44;3.20;;;1.17;;
21546;SDS011;41275;51.912;4.388;2023-08-17T12:16:06;3.33;;;1.00;;
21546;SDS011;41275;51.912;4.388;2023-08-17T12:21:35;3.70;;;1.00;;
21546;SDS011;41275;51.912;4.388;2023-08-17T12:26:56;2.50;;;0.90;;
21546;SDS011;41275;51.912;4.388;2023-08-17T12:32:19;2.93;;;0.90;;
21546;SDS011;41275;51.912;4.388;2023-08-17T12:37:41;2.55;;;0.85;;
21546;SDS011;41275;51.912;4.388;2023-08-17T12:43:02;3.30;;;1.25;;
21546;SDS011;41275;51.912;4.388;2023-08-17T12:48:24;2.73;;;0.83;;
21546;SDS011;41275;51.912;4.388;2023-08-17T12:53:45;3.40;;;1.27;;
21546;SDS011;41275;51.912;4.388;2023-08-17T12:59:06;3.70;;;1.40;;
21546;SDS011;41275;51.912;4.388;2023-08-17T13:04:28;3.20;;;0.98;;
21546;SDS011;41275;51.912;4.388;2023-08-17T13:09:49;2.65;;;1.30;;
21546;SDS011;41275;51.912;4.388;2023-08-17T13:15:10;3.78;;;1.42;;
21546;SDS011;41275;51.912;4.388;2023-08-17T13:20:31;3.10;;;2.00;;
21546;SDS011;41275;51.912;4.388;2023-08-17T13:25:53;2.23;;;1.17;;
21546;SDS011;41275;51.912;4.388;2023-08-17T13:31:17;3.13;;;1.43;;
21546;SDS011;41275;51.912;4.388;2023-08-17T13:36:38;4.63;;;1.60;;
21546;SDS011;41275;51.912;4.388;2023-08-17T13:42:00;3.22;;;1.40;;
21546;SDS011;41275;51.912;4.388;2023-08-17T13:47:21;4.40;;;1.40;;
21546;SDS011;41275;51.912;4.388;2023-08-17T13:52:42;3.97;;;1.30;;
21546;SDS011;41275;51.912;4.388;2023-08-17T13:58:04;3.87;;;1.27;;
21546;SDS011;41275;51.912;4.388;2023-08-17T14:03:25;6.03;;;1.93;;
21546;SDS011;41275;51.912;4.388;2023-08-17T14:08:46;4.90;;;1.60;;
21546;SDS011;41275;51.912;4.388;2023-08-17T14:14:08;3.83;;;1.90;;
21546;SDS011;41275;51.912;4.388;2023-08-17T14:19:32;5.63;;;1.60;;
21546;SDS011;41275;51.912;4.388;2023-08-17T14:24:53;3.58;;;1.30;;
21546;SDS011;41275;51.912;4.388;2023-08-17T14:30:15;3.60;;;1.67;;
21546;SDS011;41275;51.912;4.388;2023-08-17T14:35:36;5.32;;;1.80;;
21546;SDS011;41275;51.912;4.388;2023-08-17T14:40:58;3.70;;;1.50;;
21546;SDS011;41275;51.912;4.388;2023-08-17T14:46:19;5.10;;;1.58;;
21546;SDS011;41275;51.912;4.388;2023-08-17T14:51:41;3.90;;;1.60;;
21546;SDS011;41275;51.912;4.388;2023-08-17T14:57:03;3.47;;;1.60;;
21546;SDS011;41275;51.912;4.388;2023-08-17T15:02:24;3.90;;;1.60;;
21546;SDS011;41275;51.912;4.388;2023-08-17T15:07:45;5.82;;;1.70;;
21546;SDS011;41275;51.912;4.388;2023-08-17T15:13:07;5.05;;;1.70;;
21546;SDS011;41275;51.912;4.388;2023-08-17T15:18:28;9.20;;;2.00;;
21546;SDS011;41275;51.912;4.388;2023-08-17T15:23:49;5.13;;;1.80;;
21546;SDS011;41275;51.912;4.388;2023-08-17T15:29:11;4.95;;;1.90;;
21546;SDS011;41275;51.912;4.388;2023-08-17T15:34:32;3.92;;;1.90;;
21546;SDS011;41275;51.912;4.388;2023-08-17T15:39:53;5.97;;;2.20;;
21546;SDS011;41275;51.912;4.388;2023-08-17T15:45:14;5.97;;;2.40;;
21546;SDS011;41275;51.912;4.388;2023-08-17T15:50:38;5.37;;;2.20;;
21546;SDS011;41275;51.912;4.388;2023-08-17T15:55:59;5.60;;;2.07;;
21546;SDS011;41275;51.912;4.388;2023-08-17T16:01:21;5.57;;;1.97;;
21546;SDS011;41275;51.912;4.388;2023-08-17T16:06:42;5.68;;;1.90;;
21546;SDS011;41275;51.912;4.388;2023-08-17T16:12:04;3.33;;;1.85;;
21546;SDS011;41275;51.912;4.388;2023-08-17T16:17:26;4.03;;;2.20;;
21546;SDS011;41275;51.912;4.388;2023-08-17T16:22:47;4.63;;;2.03;;
21546;SDS011;41275;51.912;4.388;2023-08-17T16:28:08;3.83;;;2.25;;
21546;SDS011;41275;51.912;4.388;2023-08-17T16:33:30;6.95;;;2.58;;
21546;SDS011;41275;51.912;4.388;2023-08-17T16:38:51;5.53;;;2.35;;
21546;SDS011;41275;51.912;4.388;2023-08-17T16:44:12;4.65;;;2.03;;
21546;SDS011;41275;51.912;4.388;2023-08-17T16:49:33;4.60;;;2.23;;
21546;SDS011;41275;51.912;4.388;2023-08-17T16:54:57;5.53;;;2.50;;
21546;SDS011;41275;51.912;4.388;2023-08-17T17:00:18;4.65;;;2.15;;
21546;SDS011;41275;51.912;4.388;2023-08-17T17:05:39;6.35;;;2.20;;
21546;SDS011;41275;51.912;4.388;2023-08-17T17:11:00;4.72;;;2.28;;
21546;SDS011;41275;51.912;4.388;2023-08-17T17:16:22;6.60;;;2.33;;
21546;SDS011;41275;51.912;4.388;2023-08-17T17:21:43;4.80;;;2.33;;
21546;SDS011;41275;51.912;4.388;2023-08-17T17:27:05;4.50;;;2.23;;
21546;SDS011;41275;51.912;4.388;2023-08-17T17:32:26;4.93;;;2.50;;
21546;SDS011;41275;51.912;4.388;2023-08-17T17:37:47;7.32;;;2.70;;
21546;SDS011;41275;51.912;4.388;2023-08-17T17:43:10;5.35;;;2.80;;
21546;SDS011;41275;51.912;4.388;2023-08-17T17:48:33;6.35;;;2.67;;
21546;SDS011;41275;51.912;4.388;2023-08-17T17:53:54;6.17;;;2.93;;
21546;SDS011;41275;51.912;4.388;2023-08-17T17:59:16;4.82;;;2.75;;
21546;SDS011;41275;51.912;4.388;2023-08-17T18:04:37;7.28;;;2.45;;
21546;SDS011;41275;51.912;4.388;2023-08-17T18:09:59;5.55;;;2.70;;
21546;SDS011;41275;51.912;4.388;2023-08-17T18:15:23;4.75;;;2.58;;
21546;SDS011;41275;51.912;4.388;2023-08-17T18:20:44;5.35;;;2.88;;
21546;SDS011;41275;51.912;4.388;2023-08-17T18:26:05;6.17;;;2.33;;
21546;SDS011;41275;51.912;4.388;2023-08-17T18:31:26;6.00;;;2.90;;
21546;SDS011;41275;51.912;4.388;2023-08-17T18:36:48;5.57;;;2.57;;
21546;SDS011;41275;51.912;4.388;2023-08-17T18:42:10;4.78;;;2.78;;
21546;SDS011;41275;51.912;4.388;2023-08-17T18:47:31;6.32;;;3.00;;
21546;SDS011;41275;51.912;4.388;2023-08-17T18:52:52;5.00;;;2.60;;
21546;SDS011;41275;51.912;4.388;2023-08-17T18:58:14;9.63;;;3.20;;
21546;SDS011;41275;51.912;4.388;2023-08-17T19:03:37;5.20;;;3.00;;
21546;SDS011;41275;51.912;4.388;2023-08-17T19:08:59;7.30;;;3.13;;
21546;SDS011;41275;51.912;4.388;2023-08-17T19:14:20;5.77;;;3.60;;
21546;SDS011;41275;51.912;4.388;2023-08-17T19:19:42;5.17;;;3.10;;
21546;SDS011;41275;51.912;4.388;2023-08-17T19:25:03;4.72;;;2.80;;
21546;SDS011;41275;51.912;4.388;2023-08-17T19:30:26;4.70;;;2.80;;
21546;SDS011;41275;51.912;4.388;2023-08-17T19:35:47;5.65;;;3.22;;
21546;SDS011;41275;51.912;4.388;2023-08-17T19:41:08;6.75;;;3.95;;
21546;SDS011;41275;51.912;4.388;2023-08-17T19:46:32;7.43;;;3.60;;
21546;SDS011;41275;51.912;4.388;2023-08-17T19:51:53;6.38;;;3.70;;
21546;SDS011;41275;51.912;4.388;2023-08-17T19:57:18;5.75;;;3.72;;
21546;SDS011;41275;51.912;4.388;2023-08-17T20:02:40;7.93;;;3.57;;
21546;SDS011;41275;51.912;4.388;2023-08-17T20:08:01;7.50;;;4.60;;
21546;SDS011;41275;51.912;4.388;2023-08-17T20:13:23;9.02;;;4.40;;
21546;SDS011;41275;51.912;4.388;2023-08-17T20:18:45;7.72;;;4.35;;
21546;SDS011;41275;51.912;4.388;2023-08-17T20:24:07;8.55;;;4.30;;
21546;SDS011;41275;51.912;4.388;2023-08-17T20:29:30;8.82;;;4.55;;
21546;SDS011;41275;51.912;4.388;2023-08-17T20:34:51;8.05;;;4.72;;
21546;SDS011;41275;51.912;4.388;2023-08-17T20:40:15;7.88;;;4.80;;
21546;SDS011;41275;51.912;4.388;2023-08-17T20:45:37;8.60;;;4.75;;
21546;SDS011;41275;51.912;4.388;2023-08-17T20:50:58;9.15;;;4.60;;
21546;SDS011;41275;51.912;4.388;2023-08-17T20:56:21;7.73;;;4.30;;
21546;SDS011;41275;51.912;4.388;2023-08-17T21:01:42;7.75;;;4.20;;
21546;SDS011;41275;51.912;4.388;2023-08-17T21:07:04;8.10;;;3.88;;
21546;SDS011;41275;51.912;4.388;2023-08-17T21:12:25;9.00;;;4.75;;
21546;SDS011;41275;51.912;4.388;2023-08-17T21:17:48;9.27;;;4.57;;
21546;SDS011;41275;51.912;4.388;2023-08-17T21:23:09;9.88;;;5.60;;
21546;SDS011;41275;51.912;4.388;2023-08-17T21:28:31;10.00;;;5.68;;
21546;SDS011;41275;51.912;4.388;2023-08-17T21:33:52;10.38;;;6.65;;
21546;SDS011;41275;51.912;4.388;2023-08-17T21:39:14;11.57;;;6.43;;
21546;SDS011;41275;51.912;4.388;2023-08-17T21:44:35;12.20;;;6.30;;
21546;SDS011;41275;51.912;4.388;2023-08-17T21:49:56;10.47;;;6.60;;
21546;SDS011;41275;51.912;4.388;2023-08-17T21:55:17;11.63;;;6.93;;
21546;SDS011;41275;51.912;4.388;2023-08-17T22:00:40;13.13;;;7.10;;
21546;SDS011;41275;51.912;4.388;2023-08-17T22:06:02;12.97;;;7.33;;
21546;SDS011;41275;51.912;4.388;2023-08-17T22:11:26;13.77;;;6.70;;
21546;SDS011;41275;51.912;4.388;2023-08-17T22:16:47;11.43;;;6.90;;
21546;SDS011;41275;51.912;4.388;2023-08-17T22:22:09;11.80;;;6.60;;
21546;SDS011;41275;51.912;4.388;2023-08-17T22:27:30;11.07;;;6.80;;
21546;SDS011;41275;51.912;4.388;2023-08-17T22:32:52;10.60;;;6.60;;
21546;SDS011;41275;51.912;4.388;2023-08-17T22:38:13;13.75;;;6.95;;
21546;SDS011;41275;51.912;4.388;2023-08-17T22:43:34;13.48;;;7.28;;
21546;SDS011;41275;51.912;4.388;2023-08-17T22:48:56;12.10;;;6.90;;
21546;SDS011;41275;51.912;4.388;2023-08-17T22:54:17;12.83;;;7.00;;
21546;SDS011;41275;51.912;4.388;2023-08-17T22:59:38;13.50;;;7.40;;
21546;SDS011;41275;51.912;4.388;2023-08-17T23:04:59;12.13;;;7.50;;
21546;SDS011;41275;51.912;4.388;2023-08-17T23:10:21;11.65;;;7.57;;
21546;SDS011;41275;51.912;4.388;2023-08-17T23:15:42;13.88;;;7.57;;
21546;SDS011;41275;51.912;4.388;2023-08-17T23:21:03;13.57;;;7.27;;
21546;SDS011;41275;51.912;4.388;2023-08-17T23:26:24;14.10;;;7.67;;
21546;SDS011;41275;51.912;4.388;2023-08-17T23:31:45;12.52;;;7.35;;
21546;SDS011;41275;51.912;4.388;2023-08-17T23:37:07;12.48;;;7.32;;
21546;SDS011;41275;51.912;4.388;2023-08-17T23:42:28;11.85;;;7.07;;
21546;SDS011;41275;51.912;4.388;2023-08-17T23:47:49;10.88;;;6.97;;
21546;SDS011;41275;51.912;4.388;2023-08-17T23:53:11;11.10;;;6.60;;
21546;SDS011;41275;51.912;4.388;2023-08-17T23:58:32;9.93;;;6.47;;
